Fort Yates, North Dakota
Current Conditions -  °F | °C
As of 8:15 PM on Friday 21 Nov 2014 (Local Time) from K7L2 Reporting Station
Clear Clear  
Wind Chill: 30°   Ceiling: Unl
Heat Index: 34°   Visibility: 10mi
Dew Point: 28°   Wind: 5mph
Humidity: 81%   Direction: 210°SSW
Pressure: 29.73"   Gusts: NA
Location:  46.09°N, 100.64°W
Report Text: K7L2 220315Z AUTO 21004KT 10SM CLR 01/M02 A2973 RMK AO2
Loading
Personal Weather Stations






























Interactive Weather Map New forecast layout! Learn more

10-Day Weather Forecast

Advertisements
Track Severe Weather on mobile